sensor_id;sensor_type;location;lat;lon;timestamp;temperature;humidity
21115;DHT22;10715;48.546;9.896;2023-03-22T00:00:47;9.00;99.90
21115;DHT22;10715;48.546;9.896;2023-03-22T00:03:13;9.00;99.90
21115;DHT22;10715;48.546;9.896;2023-03-22T00:05:39;8.90;99.90
21115;DHT22;10715;48.546;9.896;2023-03-22T00:08:05;8.90;99.90
21115;DHT22;10715;48.546;9.896;2023-03-22T00:10:32;8.90;99.90
21115;DHT22;10715;48.546;9.896;2023-03-22T00:12:58;8.90;99.90
21115;DHT22;10715;48.546;9.896;2023-03-22T00:15:24;8.90;99.90
21115;DHT22;10715;48.546;9.896;2023-03-22T00:17:50;8.80;99.90
21115;DHT22;10715;48.546;9.896;2023-03-22T00:20:16;8.80;99.90
21115;DHT22;10715;48.546;9.896;2023-03-22T00:22:44;8.80;99.90
21115;DHT22;10715;48.546;9.896;2023-03-22T00:25:10;8.80;99.90
21115;DHT22;10715;48.546;9.896;2023-03-22T00:27:36;8.80;99.90
21115;DHT22;10715;48.546;9.896;2023-03-22T00:30:02;8.70;99.90
21115;DHT22;10715;48.546;9.896;2023-03-22T00:32:28;8.70;99.90
21115;DHT22;10715;48.546;9.896;2023-03-22T00:34:54;8.70;99.90
21115;DHT22;10715;48.546;9.896;2023-03-22T00:37:20;8.70;99.90
21115;DHT22;10715;48.546;9.896;2023-03-22T00:39:45;8.60;99.90
21115;DHT22;10715;48.546;9.896;2023-03-22T00:42:11;8.60;99.90
21115;DHT22;10715;48.546;9.896;2023-03-22T00:44:37;8.60;99.90
21115;DHT22;10715;48.546;9.896;2023-03-22T00:47:03;8.60;99.90
21115;DHT22;10715;48.546;9.896;2023-03-22T00:49:28;8.60;99.90
21115;DHT22;10715;48.546;9.896;2023-03-22T00:51:55;8.60;99.90
21115;DHT22;10715;48.546;9.896;2023-03-22T00:54:21;8.50;99.90
21115;DHT22;10715;48.546;9.896;2023-03-22T00:56:47;8.50;99.90
21115;DHT22;10715;48.546;9.896;2023-03-22T00:59:15;8.50;99.90
21115;DHT22;10715;48.546;9.896;2023-03-22T01:01:43;8.50;99.90
21115;DHT22;10715;48.546;9.896;2023-03-22T01:04:09;8.50;99.90
21115;DHT22;10715;48.546;9.896;2023-03-22T01:06:39;8.50;99.90
21115;DHT22;10715;48.546;9.896;2023-03-22T01:09:05;8.40;99.90
21115;DHT22;10715;48.546;9.896;2023-03-22T01:11:31;8.40;99.90
21115;DHT22;10715;48.546;9.896;2023-03-22T01:13:56;8.40;99.90
21115;DHT22;10715;48.546;9.896;2023-03-22T01:16:23;8.40;99.90
21115;DHT22;10715;48.546;9.896;2023-03-22T01:18:49;8.40;99.90
21115;DHT22;10715;48.546;9.896;2023-03-22T01:21:15;8.30;99.90
21115;DHT22;10715;48.546;9.896;2023-03-22T01:23:41;8.30;99.90
21115;DHT22;10715;48.546;9.896;2023-03-22T01:26:07;8.30;99.90
21115;DHT22;10715;48.546;9.896;2023-03-22T01:28:32;8.20;99.90
21115;DHT22;10715;48.546;9.896;2023-03-22T01:31:02;8.20;99.90
21115;DHT22;10715;48.546;9.896;2023-03-22T01:33:28;8.10;99.90
21115;DHT22;10715;48.546;9.896;2023-03-22T01:35:54;8.10;99.90
21115;DHT22;10715;48.546;9.896;2023-03-22T01:38:20;8.10;99.90
21115;DHT22;10715;48.546;9.896;2023-03-22T01:40:46;8.00;99.90
21115;DHT22;10715;48.546;9.896;2023-03-22T01:43:13;8.00;99.90
21115;DHT22;10715;48.546;9.896;2023-03-22T01:45:41;7.90;99.90
21115;DHT22;10715;48.546;9.896;2023-03-22T01:48:17;7.90;99.90
21115;DHT22;10715;48.546;9.896;2023-03-22T01:51:21;7.90;99.90
21115;DHT22;10715;48.546;9.896;2023-03-22T01:53:52;7.80;99.90
21115;DHT22;10715;48.546;9.896;2023-03-22T01:56:22;7.80;99.90
21115;DHT22;10715;48.546;9.896;2023-03-22T01:58:50;7.80;99.90
21115;DHT22;10715;48.546;9.896;2023-03-22T02:01:18;7.70;99.90
21115;DHT22;10715;48.546;9.896;2023-03-22T02:03:57;7.70;99.90
21115;DHT22;10715;48.546;9.896;2023-03-22T02:06:25;7.60;99.90
21115;DHT22;10715;48.546;9.896;2023-03-22T02:08:54;7.60;99.90
21115;DHT22;10715;48.546;9.896;2023-03-22T02:11:38;7.50;99.90
21115;DHT22;10715;48.546;9.896;2023-03-22T02:48:16;6.50;99.90
21115;DHT22;10715;48.546;9.896;2023-03-22T02:50:53;6.50;99.90
21115;DHT22;10715;48.546;9.896;2023-03-22T02:56:04;6.30;99.90
21115;DHT22;10715;48.546;9.896;2023-03-22T02:58:36;6.20;99.90
21115;DHT22;10715;48.546;9.896;2023-03-22T03:01:06;6.20;99.90
21115;DHT22;10715;48.546;9.896;2023-03-22T03:03:34;6.20;99.90
21115;DHT22;10715;48.546;9.896;2023-03-22T03:06:08;6.00;99.90
21115;DHT22;10715;48.546;9.896;2023-03-22T03:08:36;6.00;99.90
21115;DHT22;10715;48.546;9.896;2023-03-22T03:11:03;5.90;99.90
21115;DHT22;10715;48.546;9.896;2023-03-22T03:13:29;5.80;99.90
21115;DHT22;10715;48.546;9.896;2023-03-22T03:15:56;5.80;99.90
21115;DHT22;10715;48.546;9.896;2023-03-22T03:21:35;5.70;99.90
21115;DHT22;10715;48.546;9.896;2023-03-22T03:29:41;5.60;99.90
21115;DHT22;10715;48.546;9.896;2023-03-22T03:32:09;5.60;99.90
21115;DHT22;10715;48.546;9.896;2023-03-22T03:37:45;5.50;99.90
21115;DHT22;10715;48.546;9.896;2023-03-22T03:40:15;5.50;99.90
21115;DHT22;10715;48.546;9.896;2023-03-22T03:42:45;5.40;99.90
21115;DHT22;10715;48.546;9.896;2023-03-22T03:45:13;5.30;99.90
21115;DHT22;10715;48.546;9.896;2023-03-22T03:47:41;5.30;99.90
21115;DHT22;10715;48.546;9.896;2023-03-22T03:50:08;5.30;99.90
21115;DHT22;10715;48.546;9.896;2023-03-22T03:52:34;5.20;99.90
21115;DHT22;10715;48.546;9.896;2023-03-22T03:55:00;5.20;99.90
21115;DHT22;10715;48.546;9.896;2023-03-22T03:57:26;5.10;99.90
21115;DHT22;10715;48.546;9.896;2023-03-22T03:59:51;5.10;99.90
21115;DHT22;10715;48.546;9.896;2023-03-22T04:02:17;5.00;99.90
21115;DHT22;10715;48.546;9.896;2023-03-22T04:04:43;5.00;99.90
21115;DHT22;10715;48.546;9.896;2023-03-22T04:07:09;4.90;99.90
21115;DHT22;10715;48.546;9.896;2023-03-22T04:09:36;4.90;99.90
21115;DHT22;10715;48.546;9.896;2023-03-22T04:12:03;4.90;99.90
21115;DHT22;10715;48.546;9.896;2023-03-22T04:14:28;4.80;99.90
21115;DHT22;10715;48.546;9.896;2023-03-22T04:16:54;4.80;99.90
21115;DHT22;10715;48.546;9.896;2023-03-22T04:19:21;4.70;99.90
21115;DHT22;10715;48.546;9.896;2023-03-22T04:21:47;4.70;99.90
21115;DHT22;10715;48.546;9.896;2023-03-22T04:24:13;4.60;99.90
21115;DHT22;10715;48.546;9.896;2023-03-22T04:26:40;4.60;99.90
21115;DHT22;10715;48.546;9.896;2023-03-22T04:29:05;4.50;99.90
21115;DHT22;10715;48.546;9.896;2023-03-22T04:31:32;4.50;99.90
21115;DHT22;10715;48.546;9.896;2023-03-22T04:34:03;4.50;99.90
21115;DHT22;10715;48.546;9.896;2023-03-22T04:36:31;4.40;99.90
21115;DHT22;10715;48.546;9.896;2023-03-22T04:39:03;4.40;99.90
21115;DHT22;10715;48.546;9.896;2023-03-22T04:41:31;4.30;99.90
21115;DHT22;10715;48.546;9.896;2023-03-22T04:43:56;4.30;99.90
21115;DHT22;10715;48.546;9.896;2023-03-22T04:46:27;4.30;99.90
21115;DHT22;10715;48.546;9.896;2023-03-22T04:48:53;4.20;99.90
21115;DHT22;10715;48.546;9.896;2023-03-22T04:51:19;4.20;99.90
21115;DHT22;10715;48.546;9.896;2023-03-22T04:53:44;4.20;99.90
21115;DHT22;10715;48.546;9.896;2023-03-22T04:56:11;4.10;99.90
21115;DHT22;10715;48.546;9.896;2023-03-22T05:01:06;4.00;99.90
21115;DHT22;10715;48.546;9.896;2023-03-22T05:03:33;4.00;99.90
21115;DHT22;10715;48.546;9.896;2023-03-22T05:06:01;3.90;99.90
21115;DHT22;10715;48.546;9.896;2023-03-22T05:08:28;3.90;99.90
21115;DHT22;10715;48.546;9.896;2023-03-22T05:10:55;3.90;99.90
21115;DHT22;10715;48.546;9.896;2023-03-22T05:13:23;3.90;99.90
21115;DHT22;10715;48.546;9.896;2023-03-22T05:15:50;3.80;99.90
21115;DHT22;10715;48.546;9.896;2023-03-22T05:18:20;3.70;99.90
21115;DHT22;10715;48.546;9.896;2023-03-22T05:20:46;3.70;99.90
21115;DHT22;10715;48.546;9.896;2023-03-22T05:23:13;3.70;99.90
21115;DHT22;10715;48.546;9.896;2023-03-22T05:25:39;3.60;99.90
21115;DHT22;10715;48.546;9.896;2023-03-22T05:28:09;3.60;99.90
21115;DHT22;10715;48.546;9.896;2023-03-22T05:30:35;3.60;99.90
21115;DHT22;10715;48.546;9.896;2023-03-22T05:33:03;3.50;99.90
21115;DHT22;10715;48.546;9.896;2023-03-22T05:35:30;3.50;99.90
21115;DHT22;10715;48.546;9.896;2023-03-22T05:37:57;3.40;99.90
21115;DHT22;10715;48.546;9.896;2023-03-22T05:40:23;3.40;99.90
21115;DHT22;10715;48.546;9.896;2023-03-22T05:42:50;3.40;99.90
21115;DHT22;10715;48.546;9.896;2023-03-22T05:45:16;3.40;99.90
21115;DHT22;10715;48.546;9.896;2023-03-22T05:47:42;3.40;99.90
21115;DHT22;10715;48.546;9.896;2023-03-22T05:50:10;3.30;99.90
21115;DHT22;10715;48.546;9.896;2023-03-22T05:52:36;3.30;99.90
21115;DHT22;10715;48.546;9.896;2023-03-22T05:55:02;3.30;99.90
21115;DHT22;10715;48.546;9.896;2023-03-22T05:57:27;3.30;99.90
21115;DHT22;10715;48.546;9.896;2023-03-22T05:59:55;3.30;99.90
21115;DHT22;10715;48.546;9.896;2023-03-22T06:02:21;3.30;99.90
21115;DHT22;10715;48.546;9.896;2023-03-22T06:04:47;3.30;99.90
21115;DHT22;10715;48.546;9.896;2023-03-22T06:07:14;3.30;99.90
21115;DHT22;10715;48.546;9.896;2023-03-22T06:09:40;3.30;99.90
21115;DHT22;10715;48.546;9.896;2023-03-22T06:12:06;3.30;99.90
21115;DHT22;10715;48.546;9.896;2023-03-22T06:14:32;3.30;99.90
21115;DHT22;10715;48.546;9.896;2023-03-22T06:16:57;3.30;99.90
21115;DHT22;10715;48.546;9.896;2023-03-22T06:19:23;3.30;99.90
21115;DHT22;10715;48.546;9.896;2023-03-22T06:21:51;3.30;99.90
21115;DHT22;10715;48.546;9.896;2023-03-22T06:24:18;3.40;99.90
21115;DHT22;10715;48.546;9.896;2023-03-22T06:26:44;3.40;99.90
21115;DHT22;10715;48.546;9.896;2023-03-22T06:29:10;3.40;99.90
21115;DHT22;10715;48.546;9.896;2023-03-22T06:31:36;3.40;99.90
21115;DHT22;10715;48.546;9.896;2023-03-22T06:34:02;3.40;99.90
21115;DHT22;10715;48.546;9.896;2023-03-22T06:36:29;3.40;99.90
21115;DHT22;10715;48.546;9.896;2023-03-22T06:38:56;3.50;99.90
21115;DHT22;10715;48.546;9.896;2023-03-22T06:41:22;3.50;99.90
21115;DHT22;10715;48.546;9.896;2023-03-22T06:43:47;3.50;99.90
21115;DHT22;10715;48.546;9.896;2023-03-22T06:46:13;3.60;99.90
21115;DHT22;10715;48.546;9.896;2023-03-22T06:48:39;3.60;99.90
21115;DHT22;10715;48.546;9.896;2023-03-22T06:51:05;3.60;99.90
21115;DHT22;10715;48.546;9.896;2023-03-22T06:53:31;3.70;99.90
21115;DHT22;10715;48.546;9.896;2023-03-22T06:55:56;3.70;99.90
21115;DHT22;10715;48.546;9.896;2023-03-22T06:58:22;3.80;99.90
21115;DHT22;10715;48.546;9.896;2023-03-22T07:00:48;3.80;99.90
21115;DHT22;10715;48.546;9.896;2023-03-22T07:03:14;3.90;99.90
21115;DHT22;10715;48.546;9.896;2023-03-22T07:05:39;3.90;99.90
21115;DHT22;10715;48.546;9.896;2023-03-22T07:08:05;4.00;99.90
21115;DHT22;10715;48.546;9.896;2023-03-22T07:10:31;4.00;99.90
21115;DHT22;10715;48.546;9.896;2023-03-22T07:12:57;4.10;99.90
21115;DHT22;10715;48.546;9.896;2023-03-22T07:15:22;4.20;99.90
21115;DHT22;10715;48.546;9.896;2023-03-22T07:17:52;4.30;99.90
21115;DHT22;10715;48.546;9.896;2023-03-22T07:20:18;4.40;99.90
21115;DHT22;10715;48.546;9.896;2023-03-22T07:22:44;4.50;99.90
21115;DHT22;10715;48.546;9.896;2023-03-22T07:25:10;4.50;99.90
21115;DHT22;10715;48.546;9.896;2023-03-22T07:27:36;4.60;99.90
21115;DHT22;10715;48.546;9.896;2023-03-22T07:30:04;4.70;99.90
21115;DHT22;10715;48.546;9.896;2023-03-22T07:32:30;4.80;99.90
21115;DHT22;10715;48.546;9.896;2023-03-22T07:34:56;4.90;99.90
21115;DHT22;10715;48.546;9.896;2023-03-22T07:37:21;5.00;99.90
21115;DHT22;10715;48.546;9.896;2023-03-22T07:39:47;5.10;99.90
21115;DHT22;10715;48.546;9.896;2023-03-22T07:42:13;5.20;99.90
21115;DHT22;10715;48.546;9.896;2023-03-22T07:44:39;5.40;99.90
21115;DHT22;10715;48.546;9.896;2023-03-22T07:47:04;5.50;99.90
21115;DHT22;10715;48.546;9.896;2023-03-22T07:49:31;5.70;99.90
21115;DHT22;10715;48.546;9.896;2023-03-22T07:51:57;5.80;99.90
21115;DHT22;10715;48.546;9.896;2023-03-22T07:54:23;6.00;99.90
21115;DHT22;10715;48.546;9.896;2023-03-22T07:56:49;6.10;99.90
21115;DHT22;10715;48.546;9.896;2023-03-22T07:59:15;6.30;99.90
21115;DHT22;10715;48.546;9.896;2023-03-22T08:01:42;6.40;99.90
21115;DHT22;10715;48.546;9.896;2023-03-22T08:04:08;6.60;99.90
21115;DHT22;10715;48.546;9.896;2023-03-22T08:06:34;6.70;99.90
21115;DHT22;10715;48.546;9.896;2023-03-22T08:09:03;6.80;99.90
21115;DHT22;10715;48.546;9.896;2023-03-22T08:11:29;7.00;99.90
21115;DHT22;10715;48.546;9.896;2023-03-22T08:13:55;7.10;99.90
21115;DHT22;10715;48.546;9.896;2023-03-22T08:16:21;7.30;99.90
21115;DHT22;10715;48.546;9.896;2023-03-22T08:18:47;7.40;99.90
21115;DHT22;10715;48.546;9.896;2023-03-22T08:21:13;7.50;99.90
21115;DHT22;10715;48.546;9.896;2023-03-22T08:23:39;7.60;99.90
21115;DHT22;10715;48.546;9.896;2023-03-22T08:26:05;7.70;99.90
21115;DHT22;10715;48.546;9.896;2023-03-22T08:28:30;7.90;99.90
21115;DHT22;10715;48.546;9.896;2023-03-22T08:30:56;8.00;99.90
21115;DHT22;10715;48.546;9.896;2023-03-22T08:33:22;8.20;99.90
21115;DHT22;10715;48.546;9.896;2023-03-22T08:35:49;8.30;99.90
21115;DHT22;10715;48.546;9.896;2023-03-22T08:38:15;8.50;99.90
21115;DHT22;10715;48.546;9.896;2023-03-22T08:40:41;8.60;99.90
21115;DHT22;10715;48.546;9.896;2023-03-22T08:43:07;8.70;99.90
21115;DHT22;10715;48.546;9.896;2023-03-22T08:45:32;8.80;99.90
21115;DHT22;10715;48.546;9.896;2023-03-22T08:47:58;8.90;99.90
21115;DHT22;10715;48.546;9.896;2023-03-22T08:50:24;9.00;99.90
21115;DHT22;10715;48.546;9.896;2023-03-22T08:52:50;9.10;99.90
21115;DHT22;10715;48.546;9.896;2023-03-22T08:55:16;9.10;99.90
21115;DHT22;10715;48.546;9.896;2023-03-22T08:57:42;9.30;99.90
21115;DHT22;10715;48.546;9.896;2023-03-22T09:00:11;9.40;99.90
21115;DHT22;10715;48.546;9.896;2023-03-22T09:02:37;9.50;99.90
21115;DHT22;10715;48.546;9.896;2023-03-22T09:05:03;9.60;99.90
21115;DHT22;10715;48.546;9.896;2023-03-22T09:07:29;9.70;99.90
21115;DHT22;10715;48.546;9.896;2023-03-22T09:09:55;9.80;99.90
21115;DHT22;10715;48.546;9.896;2023-03-22T09:12:20;9.90;99.90
21115;DHT22;10715;48.546;9.896;2023-03-22T09:14:46;10.00;99.90
21115;DHT22;10715;48.546;9.896;2023-03-22T09:17:14;10.10;99.90
21115;DHT22;10715;48.546;9.896;2023-03-22T09:19:40;10.20;99.90
21115;DHT22;10715;48.546;9.896;2023-03-22T09:22:06;10.30;99.90
21115;DHT22;10715;48.546;9.896;2023-03-22T09:24:31;10.30;99.90
21115;DHT22;10715;48.546;9.896;2023-03-22T09:26:57;10.40;99.90
21115;DHT22;10715;48.546;9.896;2023-03-22T09:29:23;10.50;99.90
21115;DHT22;10715;48.546;9.896;2023-03-22T09:31:49;10.60;99.90
21115;DHT22;10715;48.546;9.896;2023-03-22T09:34:15;10.80;99.90
21115;DHT22;10715;48.546;9.896;2023-03-22T09:36:41;10.90;99.90
21115;DHT22;10715;48.546;9.896;2023-03-22T09:39:07;11.00;99.90
21115;DHT22;10715;48.546;9.896;2023-03-22T09:44:23;11.30;99.90
21115;DHT22;10715;48.546;9.896;2023-03-22T09:46:53;11.50;99.90
21115;DHT22;10715;48.546;9.896;2023-03-22T09:49:23;11.60;99.90
21115;DHT22;10715;48.546;9.896;2023-03-22T09:51:52;11.70;99.90
21115;DHT22;10715;48.546;9.896;2023-03-22T09:54:32;11.90;99.90
21115;DHT22;10715;48.546;9.896;2023-03-22T09:57:21;12.00;99.90
21115;DHT22;10715;48.546;9.896;2023-03-22T09:59:51;12.10;99.90
21115;DHT22;10715;48.546;9.896;2023-03-22T10:02:26;12.20;99.90
21115;DHT22;10715;48.546;9.896;2023-03-22T10:05:49;12.30;99.90
21115;DHT22;10715;48.546;9.896;2023-03-22T10:10:22;12.50;99.90
21115;DHT22;10715;48.546;9.896;2023-03-22T10:13:18;12.70;99.90
21115;DHT22;10715;48.546;9.896;2023-03-22T10:15:49;12.70;99.90
21115;DHT22;10715;48.546;9.896;2023-03-22T10:18:24;12.80;99.90
21115;DHT22;10715;48.546;9.896;2023-03-22T10:20:58;13.00;99.90
21115;DHT22;10715;48.546;9.896;2023-03-22T10:26:30;13.30;99.90
21115;DHT22;10715;48.546;9.896;2023-03-22T10:29:11;13.40;99.90
21115;DHT22;10715;48.546;9.896;2023-03-22T10:31:38;13.50;99.90
21115;DHT22;10715;48.546;9.896;2023-03-22T10:34:27;13.50;99.90
21115;DHT22;10715;48.546;9.896;2023-03-22T10:36:55;13.50;99.90
21115;DHT22;10715;48.546;9.896;2023-03-22T10:39:47;13.50;99.90
21115;DHT22;10715;48.546;9.896;2023-03-22T10:42:21;13.60;99.90
21115;DHT22;10715;48.546;9.896;2023-03-22T10:47:30;13.80;99.90
21115;DHT22;10715;48.546;9.896;2023-03-22T10:50:00;13.80;99.90
21115;DHT22;10715;48.546;9.896;2023-03-22T10:52:48;13.90;99.90
21115;DHT22;10715;48.546;9.896;2023-03-22T10:55:15;14.00;99.90
21115;DHT22;10715;48.546;9.896;2023-03-22T10:57:49;14.00;99.90
21115;DHT22;10715;48.546;9.896;2023-03-22T11:00:16;14.00;99.90
21115;DHT22;10715;48.546;9.896;2023-03-22T11:02:50;14.00;99.90
21115;DHT22;10715;48.546;9.896;2023-03-22T11:05:25;14.10;99.90
21115;DHT22;10715;48.546;9.896;2023-03-22T11:07:52;14.20;99.90
21115;DHT22;10715;48.546;9.896;2023-03-22T11:10:29;14.20;99.90
21115;DHT22;10715;48.546;9.896;2023-03-22T11:15:35;14.30;99.90
21115;DHT22;10715;48.546;9.896;2023-03-22T11:18:06;14.40;99.90
21115;DHT22;10715;48.546;9.896;2023-03-22T11:20:33;14.50;99.90
21115;DHT22;10715;48.546;9.896;2023-03-22T11:23:02;14.50;99.90
21115;DHT22;10715;48.546;9.896;2023-03-22T11:25:31;14.60;99.90
21115;DHT22;10715;48.546;9.896;2023-03-22T11:28:20;14.60;99.90
21115;DHT22;10715;48.546;9.896;2023-03-22T11:33:33;14.70;99.90
21115;DHT22;10715;48.546;9.896;2023-03-22T11:36:19;14.80;99.90
21115;DHT22;10715;48.546;9.896;2023-03-22T11:38:45;14.80;99.90
21115;DHT22;10715;48.546;9.896;2023-03-22T11:41:24;14.90;99.90
21115;DHT22;10715;48.546;9.896;2023-03-22T11:43:53;14.90;99.90
21115;DHT22;10715;48.546;9.896;2023-03-22T11:46:19;14.90;99.90
21115;DHT22;10715;48.546;9.896;2023-03-22T11:48:48;14.90;99.90
21115;DHT22;10715;48.546;9.896;2023-03-22T11:51:17;15.00;99.90
21115;DHT22;10715;48.546;9.896;2023-03-22T11:53:47;15.00;99.90
21115;DHT22;10715;48.546;9.896;2023-03-22T11:56:18;14.90;99.90
21115;DHT22;10715;48.546;9.896;2023-03-22T12:01:26;15.10;99.90
21115;DHT22;10715;48.546;9.896;2023-03-22T12:03:57;15.10;99.90
21115;DHT22;10715;48.546;9.896;2023-03-22T12:06:30;15.20;99.90
21115;DHT22;10715;48.546;9.896;2023-03-22T12:09:05;15.20;99.90
21115;DHT22;10715;48.546;9.896;2023-03-22T12:16:39;15.40;99.90
21115;DHT22;10715;48.546;9.896;2023-03-22T12:21:41;15.50;99.90
21115;DHT22;10715;48.546;9.896;2023-03-22T12:24:31;15.50;99.90
21115;DHT22;10715;48.546;9.896;2023-03-22T12:27:20;15.60;99.90
21115;DHT22;10715;48.546;9.896;2023-03-22T12:32:39;15.50;99.90
21115;DHT22;10715;48.546;9.896;2023-03-22T12:35:12;15.50;99.90
21115;DHT22;10715;48.546;9.896;2023-03-22T12:37:41;15.50;99.90
21115;DHT22;10715;48.546;9.896;2023-03-22T12:40:36;15.60;99.90
21115;DHT22;10715;48.546;9.896;2023-03-22T12:43:06;15.60;99.90
21115;DHT22;10715;48.546;9.896;2023-03-22T12:45:38;15.60;98.20
21115;DHT22;10715;48.546;9.896;2023-03-22T12:48:30;15.60;98.70
21115;DHT22;10715;48.546;9.896;2023-03-22T12:51:03;15.70;98.80
21115;DHT22;10715;48.546;9.896;2023-03-22T12:53:34;15.70;98.20
21115;DHT22;10715;48.546;9.896;2023-03-22T12:56:00;15.70;99.20
21115;DHT22;10715;48.546;9.896;2023-03-22T12:58:27;15.70;98.70
21115;DHT22;10715;48.546;9.896;2023-03-22T13:03:58;15.80;99.40
21115;DHT22;10715;48.546;9.896;2023-03-22T13:06:30;15.90;98.70
21115;DHT22;10715;48.546;9.896;2023-03-22T13:09:09;15.90;99.10
21115;DHT22;10715;48.546;9.896;2023-03-22T13:11:37;15.90;99.00
21115;DHT22;10715;48.546;9.896;2023-03-22T13:14:03;15.90;97.90
21115;DHT22;10715;48.546;9.896;2023-03-22T13:16:51;16.00;97.80
21115;DHT22;10715;48.546;9.896;2023-03-22T13:19:35;16.00;97.70
21115;DHT22;10715;48.546;9.896;2023-03-22T13:22:15;16.00;98.10
21115;DHT22;10715;48.546;9.896;2023-03-22T13:30:46;16.20;96.60
21115;DHT22;10715;48.546;9.896;2023-03-22T13:33:24;16.20;96.00
21115;DHT22;10715;48.546;9.896;2023-03-22T13:35:58;16.20;95.90
21115;DHT22;10715;48.546;9.896;2023-03-22T13:38:39;16.20;95.60
21115;DHT22;10715;48.546;9.896;2023-03-22T13:41:14;16.30;94.40
21115;DHT22;10715;48.546;9.896;2023-03-22T14:01:52;16.30;94.60
21115;DHT22;10715;48.546;9.896;2023-03-22T14:04:24;16.30;94.60
21115;DHT22;10715;48.546;9.896;2023-03-22T14:06:59;16.30;94.40
21115;DHT22;10715;48.546;9.896;2023-03-22T14:09:37;16.30;94.30
21115;DHT22;10715;48.546;9.896;2023-03-22T14:14:54;16.30;93.10
21115;DHT22;10715;48.546;9.896;2023-03-22T14:19:55;16.40;93.90
21115;DHT22;10715;48.546;9.896;2023-03-22T14:22:35;16.40;94.00
21115;DHT22;10715;48.546;9.896;2023-03-22T14:25:04;16.40;94.00
21115;DHT22;10715;48.546;9.896;2023-03-22T14:27:32;16.40;93.80
21115;DHT22;10715;48.546;9.896;2023-03-22T14:29:59;16.50;92.70
21115;DHT22;10715;48.546;9.896;2023-03-22T14:32:26;16.60;93.20
21115;DHT22;10715;48.546;9.896;2023-03-22T14:37:29;16.60;92.90
21115;DHT22;10715;48.546;9.896;2023-03-22T14:39:55;16.60;92.70
21115;DHT22;10715;48.546;9.896;2023-03-22T14:44:53;16.60;92.40
21115;DHT22;10715;48.546;9.896;2023-03-22T14:47:22;16.60;93.10
21115;DHT22;10715;48.546;9.896;2023-03-22T14:49:56;16.60;93.30
21115;DHT22;10715;48.546;9.896;2023-03-22T14:52:26;16.60;93.00
21115;DHT22;10715;48.546;9.896;2023-03-22T14:54:55;16.60;93.70
21115;DHT22;10715;48.546;9.896;2023-03-22T14:57:29;16.60;94.00
21115;DHT22;10715;48.546;9.896;2023-03-22T14:59:58;16.50;93.60
21115;DHT22;10715;48.546;9.896;2023-03-22T15:02:38;16.50;93.50
21115;DHT22;10715;48.546;9.896;2023-03-22T15:05:25;16.50;93.50
21115;DHT22;10715;48.546;9.896;2023-03-22T15:08:06;16.50;93.60
21115;DHT22;10715;48.546;9.896;2023-03-22T15:10:34;16.40;93.80
21115;DHT22;10715;48.546;9.896;2023-03-22T15:13:01;16.40;93.80
21115;DHT22;10715;48.546;9.896;2023-03-22T15:15:37;16.50;93.90
21115;DHT22;10715;48.546;9.896;2023-03-22T15:18:04;16.40;94.00
21115;DHT22;10715;48.546;9.896;2023-03-22T15:20:33;16.40;94.00
21115;DHT22;10715;48.546;9.896;2023-03-22T15:23:08;16.50;93.90
21115;DHT22;10715;48.546;9.896;2023-03-22T15:25:35;16.50;94.00
21115;DHT22;10715;48.546;9.896;2023-03-22T15:28:06;16.50;93.30
21115;DHT22;10715;48.546;9.896;2023-03-22T15:30:34;16.40;92.70
21115;DHT22;10715;48.546;9.896;2023-03-22T15:33:12;16.50;92.90
21115;DHT22;10715;48.546;9.896;2023-03-22T15:35:39;16.50;93.00
21115;DHT22;10715;48.546;9.896;2023-03-22T15:38:05;16.40;92.40
21115;DHT22;10715;48.546;9.896;2023-03-22T15:40:43;16.40;92.40
21115;DHT22;10715;48.546;9.896;2023-03-22T15:43:31;16.40;92.30
21115;DHT22;10715;48.546;9.896;2023-03-22T15:51:43;16.40;92.30
21115;DHT22;10715;48.546;9.896;2023-03-22T15:54:15;16.40;92.80
21115;DHT22;10715;48.546;9.896;2023-03-22T15:56:45;16.40;92.80
21115;DHT22;10715;48.546;9.896;2023-03-22T15:59:25;16.40;91.80
21115;DHT22;10715;48.546;9.896;2023-03-22T16:01:55;16.40;92.50
21115;DHT22;10715;48.546;9.896;2023-03-22T16:04:24;16.30;91.60
21115;DHT22;10715;48.546;9.896;2023-03-22T16:06:55;16.30;92.00
21115;DHT22;10715;48.546;9.896;2023-03-22T16:09:21;16.30;91.80
21115;DHT22;10715;48.546;9.896;2023-03-22T16:11:47;16.30;92.10
21115;DHT22;10715;48.546;9.896;2023-03-22T16:14:14;16.20;90.90
21115;DHT22;10715;48.546;9.896;2023-03-22T16:16:41;16.20;90.80
21115;DHT22;10715;48.546;9.896;2023-03-22T16:19:07;16.20;90.20
21115;DHT22;10715;48.546;9.896;2023-03-22T16:21:33;16.20;89.90
21115;DHT22;10715;48.546;9.896;2023-03-22T16:24:01;16.20;90.00
21115;DHT22;10715;48.546;9.896;2023-03-22T16:26:27;16.10;89.30
21115;DHT22;10715;48.546;9.896;2023-03-22T16:28:54;16.10;90.30
21115;DHT22;10715;48.546;9.896;2023-03-22T16:31:21;16.10;90.40
21115;DHT22;10715;48.546;9.896;2023-03-22T16:33:48;16.00;91.30
21115;DHT22;10715;48.546;9.896;2023-03-22T16:36:16;16.00;91.80
21115;DHT22;10715;48.546;9.896;2023-03-22T16:38:43;16.00;92.30
21115;DHT22;10715;48.546;9.896;2023-03-22T16:41:28;15.90;92.50
21115;DHT22;10715;48.546;9.896;2023-03-22T16:43:55;15.90;92.40
21115;DHT22;10715;48.546;9.896;2023-03-22T16:46:22;15.80;92.70
21115;DHT22;10715;48.546;9.896;2023-03-22T16:48:48;15.80;92.50
21115;DHT22;10715;48.546;9.896;2023-03-22T16:51:23;15.80;92.70
21115;DHT22;10715;48.546;9.896;2023-03-22T16:53:50;15.70;93.00
21115;DHT22;10715;48.546;9.896;2023-03-22T16:56:25;15.70;93.70
21115;DHT22;10715;48.546;9.896;2023-03-22T16:58:55;15.60;94.20
21115;DHT22;10715;48.546;9.896;2023-03-22T17:01:21;15.60;94.80
21115;DHT22;10715;48.546;9.896;2023-03-22T17:03:48;15.50;95.20
21115;DHT22;10715;48.546;9.896;2023-03-22T17:06:18;15.40;95.30
21115;DHT22;10715;48.546;9.896;2023-03-22T17:08:44;15.30;95.70
21115;DHT22;10715;48.546;9.896;2023-03-22T17:11:20;15.20;96.40
21115;DHT22;10715;48.546;9.896;2023-03-22T17:13:51;15.10;96.70
21115;DHT22;10715;48.546;9.896;2023-03-22T17:16:20;15.00;97.20
21115;DHT22;10715;48.546;9.896;2023-03-22T17:18:46;14.90;97.30
21115;DHT22;10715;48.546;9.896;2023-03-22T17:21:14;14.90;97.50
21115;DHT22;10715;48.546;9.896;2023-03-22T17:23:40;14.70;97.80
21115;DHT22;10715;48.546;9.896;2023-03-22T17:26:07;14.60;97.60
21115;DHT22;10715;48.546;9.896;2023-03-22T17:28:33;14.50;97.80
21115;DHT22;10715;48.546;9.896;2023-03-22T17:30:59;14.40;97.80
21115;DHT22;10715;48.546;9.896;2023-03-22T17:33:26;14.30;98.10
21115;DHT22;10715;48.546;9.896;2023-03-22T17:35:52;14.20;98.20
21115;DHT22;10715;48.546;9.896;2023-03-22T17:38:18;14.10;98.50
21115;DHT22;10715;48.546;9.896;2023-03-22T17:40:44;14.00;98.60
21115;DHT22;10715;48.546;9.896;2023-03-22T17:43:10;13.90;98.70
21115;DHT22;10715;48.546;9.896;2023-03-22T17:45:36;13.80;98.50
21115;DHT22;10715;48.546;9.896;2023-03-22T17:48:03;13.70;98.60
21115;DHT22;10715;48.546;9.896;2023-03-22T17:50:31;13.60;99.30
21115;DHT22;10715;48.546;9.896;2023-03-22T17:53:03;13.50;99.70
21115;DHT22;10715;48.546;9.896;2023-03-22T17:55:31;13.50;99.40